Time;durP1;ratioP1;P1;durP2;ratioP2;P2;SDS_P1;SDS_P2;PMS_P1;PMS_P2;Temp;Humidity;BMP_temperature;BMP_pressure;BME280_temperature;BME280_humidity;BME280_pressure;Samples;Min_cycle;Max_cycle;Signal;HPM_P1;HPM_P2
2023/08/16 00:00:24;;;;;;;12.97;11.03;;;;;;;;;;752020;183;918120;-58
2023/08/16 00:02:50;;;;;;;13.03;10.57;;;;;;;;;;758358;184;818047;-61
2023/08/16 00:05:16;;;;;;;13.70;9.37;;;;;;;;;;750494;183;820407;-57
2023/08/16 00:07:42;;;;;;;10.70;9.60;;;;;;;;;;756207;183;919782;-56
2023/08/16 00:10:10;;;;;;;13.23;9.80;;;;;;;;;;756456;183;918658;-57
2023/08/16 00:12:35;;;;;;;13.80;9.73;;;;;;;;;;748734;184;816921;-61
2023/08/16 00:15:01;;;;;;;10.10;9.10;;;;;;;;;;755739;183;817306;-61
2023/08/16 00:17:27;;;;;;;15.90;11.30;;;;;;;;;;754221;185;816541;-61
2023/08/16 00:19:53;;;;;;;18.65;10.40;;;;;;;;;;750713;184;919872;-58
2023/08/16 00:22:19;;;;;;;14.53;10.93;;;;;;;;;;750454;184;944486;-57
2023/08/16 00:24:45;;;;;;;19.43;9.70;;;;;;;;;;750708;183;918043;-58
2023/08/16 00:27:11;;;;;;;12.03;10.77;;;;;;;;;;756379;184;919668;-63
2023/08/16 00:29:36;;;;;;;12.17;10.73;;;;;;;;;;746825;185;919373;-58
2023/08/16 00:32:04;;;;;;;12.17;10.23;;;;;;;;;;748064;184;918875;-61
2023/08/16 00:34:28;;;;;;;16.97;11.27;;;;;;;;;;757954;183;919070;-57
2023/08/16 00:36:54;;;;;;;13.73;12.20;;;;;;;;;;754067;183;920017;-61
2023/08/16 00:39:20;;;;;;;13.37;10.10;;;;;;;;;;746569;184;919067;-58
2023/08/16 00:41:46;;;;;;;13.20;11.20;;;;;;;;;;759290;183;818520;-61
2023/08/16 00:44:12;;;;;;;12.93;11.10;;;;;;;;;;752411;184;922258;-57
2023/08/16 00:46:37;;;;;;;21.73;11.87;;;;;;;;;;752315;184;915652;-57
2023/08/16 00:49:04;;;;;;;12.80;11.50;;;;;;;;;;755659;183;818808;-58
2023/08/16 00:51:29;;;;;;;19.40;10.77;;;;;;;;;;750099;184;921955;-58
2023/08/16 00:53:55;;;;;;;14.70;10.03;;;;;;;;;;755827;182;920400;-58
2023/08/16 00:56:21;;;;;;;17.17;11.67;;;;;;;;;;747813;185;917268;-58
2023/08/16 00:58:47;;;;;;;14.00;11.70;;;;;;;;;;754059;184;915716;-58
2023/08/16 01:01:12;;;;;;;12.27;10.43;;;;;;;;;;752487;184;917993;-61
2023/08/16 01:03:38;;;;;;;16.27;12.30;;;;;;;;;;751062;185;920237;-61
2023/08/16 01:06:05;;;;;;;12.10;9.80;;;;;;;;;;749303;184;942472;-61
2023/08/16 01:08:30;;;;;;;14.10;12.03;;;;;;;;;;752332;184;918761;-61
2023/08/16 01:11:07;;;;;;;10.60;8.77;;;;;;;;;;749833;184;919241;-58
2023/08/16 01:13:32;;;;;;;11.00;8.80;;;;;;;;;;747572;182;920131;-61
2023/08/16 01:15:58;;;;;;;11.00;9.87;;;;;;;;;;752662;184;919329;-63
2023/08/16 01:18:23;;;;;;;12.43;10.90;;;;;;;;;;750121;184;919776;-58
2023/08/16 01:20:50;;;;;;;9.57;8.50;;;;;;;;;;746072;185;920345;-61
2023/08/16 01:23:33;;;;;;;12.43;10.60;;;;;;;;;;756839;183;922041;-62
2023/08/16 01:26:02;;;;;;;12.47;10.50;;;;;;;;;;748036;184;833836;-58
2023/08/16 01:28:27;;;;;;;12.97;10.33;;;;;;;;;;743194;186;938553;-63
2023/08/16 01:30:54;;;;;;;12.43;10.87;;;;;;;;;;752661;183;884600;-62
2023/08/16 01:33:19;;;;;;;12.63;10.33;;;;;;;;;;748588;183;919169;-58
2023/08/16 01:35:45;;;;;;;12.90;10.33;;;;;;;;;;749200;185;916289;-62
2023/08/16 01:38:12;;;;;;;13.93;10.70;;;;;;;;;;747537;183;919548;-59
2023/08/16 01:40:38;;;;;;;16.40;11.00;;;;;;;;;;746062;185;873215;-60
2023/08/16 01:43:04;;;;;;;12.63;9.90;;;;;;;;;;753619;184;917656;-58
2023/08/16 01:45:30;;;;;;;14.07;10.40;;;;;;;;;;751431;184;923586;-58
2023/08/16 01:47:55;;;;;;;14.00;10.70;;;;;;;;;;750730;184;921449;-63
2023/08/16 01:50:21;;;;;;;12.40;11.13;;;;;;;;;;759704;184;921457;-63
2023/08/16 01:52:47;;;;;;;12.73;10.67;;;;;;;;;;748776;185;919425;-57
2023/08/16 01:55:13;;;;;;;14.90;11.10;;;;;;;;;;751428;183;924121;-62
2023/08/16 01:57:40;;;;;;;12.43;11.23;;;;;;;;;;754982;182;820847;-59
2023/08/16 02:00:06;;;;;;;16.43;12.27;;;;;;;;;;762177;182;922528;-58
2023/08/16 02:02:31;;;;;;;15.57;12.53;;;;;;;;;;751514;182;920002;-58
2023/08/16 02:04:57;;;;;;;13.03;10.90;;;;;;;;;;754869;182;919925;-58
2023/08/16 02:07:23;;;;;;;13.13;11.30;;;;;;;;;;759697;183;816091;-58
2023/08/16 02:09:49;;;;;;;16.67;11.00;;;;;;;;;;752202;184;906194;-58
2023/08/16 02:12:14;;;;;;;13.90;12.13;;;;;;;;;;754474;183;926224;-58
2023/08/16 02:14:40;;;;;;;13.00;11.40;;;;;;;;;;755077;183;917890;-63
2023/08/16 02:17:06;;;;;;;13.60;10.73;;;;;;;;;;754219;183;918748;-58
2023/08/16 02:19:32;;;;;;;12.83;11.43;;;;;;;;;;752869;183;920297;-63
2023/08/16 02:21:58;;;;;;;13.07;10.57;;;;;;;;;;750891;183;919042;-62
2023/08/16 02:24:24;;;;;;;12.83;10.53;;;;;;;;;;758127;184;919339;-57
2023/08/16 02:26:50;;;;;;;12.67;10.40;;;;;;;;;;749622;183;919323;-58
2023/08/16 02:29:16;;;;;;;12.33;9.03;;;;;;;;;;749114;183;920217;-59
2023/08/16 02:31:41;;;;;;;11.33;10.23;;;;;;;;;;756374;183;920197;-57
2023/08/16 02:34:07;;;;;;;17.33;10.23;;;;;;;;;;750121;183;918815;-62
2023/08/16 02:36:34;;;;;;;13.80;11.03;;;;;;;;;;751979;184;920464;-58
2023/08/16 02:39:00;;;;;;;11.00;9.57;;;;;;;;;;757045;183;919518;-61
2023/08/16 02:41:25;;;;;;;15.40;10.63;;;;;;;;;;749756;185;831662;-62
2023/08/16 02:43:51;;;;;;;15.30;9.90;;;;;;;;;;749279;184;919165;-58
2023/08/16 02:46:16;;;;;;;15.43;11.50;;;;;;;;;;755539;183;817995;-63
2023/08/16 02:48:42;;;;;;;13.23;11.00;;;;;;;;;;748822;183;917205;-63
2023/08/16 02:51:08;;;;;;;12.47;10.37;;;;;;;;;;751353;183;918362;-57
2023/08/16 02:53:34;;;;;;;11.83;10.57;;;;;;;;;;748787;184;918819;-58
2023/08/16 02:56:00;;;;;;;14.70;10.40;;;;;;;;;;755778;183;917470;-57
2023/08/16 02:58:26;;;;;;;13.27;11.88;;;;;;;;;;754275;183;919189;-58
2023/08/16 03:00:52;;;;;;;15.60;10.63;;;;;;;;;;749313;183;919190;-61
2023/08/16 03:03:17;;;;;;;11.60;10.50;;;;;;;;;;760562;183;919203;-62
2023/08/16 03:05:43;;;;;;;13.13;11.03;;;;;;;;;;750507;184;923188;-58
2023/08/16 03:08:09;;;;;;;13.07;11.67;;;;;;;;;;753267;182;921953;-59
2023/08/16 03:10:35;;;;;;;13.37;11.40;;;;;;;;;;756220;184;919086;-58
2023/08/16 03:13:01;;;;;;;16.03;12.20;;;;;;;;;;743945;183;2135372;-59
2023/08/16 03:15:27;;;;;;;12.25;10.95;;;;;;;;;;749884;183;918553;-59
2023/08/16 03:17:52;;;;;;;15.10;9.87;;;;;;;;;;751017;181;919554;-58
2023/08/16 03:20:18;;;;;;;28.23;11.53;;;;;;;;;;753315;182;918464;-57
2023/08/16 03:22:44;;;;;;;17.47;11.70;;;;;;;;;;749181;185;915461;-58
2023/08/16 03:25:10;;;;;;;12.20;10.37;;;;;;;;;;751354;183;919342;-62
2023/08/16 03:27:36;;;;;;;12.70;10.50;;;;;;;;;;755121;183;918060;-57
2023/08/16 03:30:02;;;;;;;18.37;11.63;;;;;;;;;;749038;183;891188;-58
2023/08/16 03:32:28;;;;;;;13.53;11.17;;;;;;;;;;752162;184;919429;-58
2023/08/16 03:34:53;;;;;;;14.93;11.60;;;;;;;;;;755634;184;918797;-58
2023/08/16 03:37:19;;;;;;;14.03;12.10;;;;;;;;;;752456;185;920036;-59
2023/08/16 03:39:45;;;;;;;12.57;11.20;;;;;;;;;;748763;183;919261;-62
2023/08/16 03:42:11;;;;;;;15.63;12.00;;;;;;;;;;758768;184;918077;-58
2023/08/16 03:44:37;;;;;;;17.83;12.00;;;;;;;;;;756398;184;870464;-59
2023/08/16 03:47:04;;;;;;;14.53;12.90;;;;;;;;;;750307;184;921306;-59
2023/08/16 03:49:29;;;;;;;14.77;12.32;;;;;;;;;;751364;182;919885;-59
2023/08/16 03:51:54;;;;;;;14.33;12.10;;;;;;;;;;755028;183;896082;-57
2023/08/16 03:54:20;;;;;;;15.20;12.37;;;;;;;;;;745347;183;920703;-62
2023/08/16 03:56:46;;;;;;;13.93;11.53;;;;;;;;;;751528;184;894732;-58
2023/08/16 03:59:12;;;;;;;13.43;12.03;;;;;;;;;;761982;183;815823;-58
2023/08/16 04:01:38;;;;;;;15.10;13.20;;;;;;;;;;747730;183;919332;-58
2023/08/16 04:04:04;;;;;;;20.87;13.00;;;;;;;;;;753973;183;917797;-59
2023/08/16 04:06:30;;;;;;;14.30;12.90;;;;;;;;;;752261;183;919159;-62
2023/08/16 04:08:55;;;;;;;14.67;13.10;;;;;;;;;;748654;184;919292;-59
2023/08/16 04:11:21;;;;;;;13.33;11.93;;;;;;;;;;749849;185;919206;-62
2023/08/16 04:13:47;;;;;;;13.97;12.20;;;;;;;;;;748544;185;919016;-59
2023/08/16 04:16:13;;;;;;;18.23;12.80;;;;;;;;;;758681;182;918222;-62
2023/08/16 04:18:39;;;;;;;16.90;11.87;;;;;;;;;;741920;184;920737;-59
2023/08/16 04:21:05;;;;;;;16.80;12.20;;;;;;;;;;745500;185;919323;-63
2023/08/16 04:23:30;;;;;;;13.73;12.33;;;;;;;;;;754078;184;817202;-61
2023/08/16 04:25:56;;;;;;;12.73;11.40;;;;;;;;;;755484;183;919449;-63
2023/08/16 04:28:22;;;;;;;12.10;10.90;;;;;;;;;;752103;183;802020;-58
2023/08/16 04:30:48;;;;;;;13.60;10.83;;;;;;;;;;758552;185;921162;-62
2023/08/16 04:33:14;;;;;;;14.20;11.77;;;;;;;;;;756597;183;919423;-59
2023/08/16 04:35:40;;;;;;;14.13;12.53;;;;;;;;;;744702;184;1009795;-63
2023/08/16 04:38:06;;;;;;;13.70;12.13;;;;;;;;;;752219;183;819026;-58
2023/08/16 04:40:31;;;;;;;16.17;12.80;;;;;;;;;;750156;183;919498;-62
2023/08/16 04:42:57;;;;;;;15.00;13.50;;;;;;;;;;748455;183;921141;-58
2023/08/16 04:45:23;;;;;;;13.77;12.17;;;;;;;;;;750212;183;919343;-59
2023/08/16 04:47:49;;;;;;;20.57;13.83;;;;;;;;;;751532;183;919142;-62
2023/08/16 04:50:15;;;;;;;22.23;14.13;;;;;;;;;;757252;183;924593;-63
2023/08/16 04:52:41;;;;;;;21.33;14.43;;;;;;;;;;747860;183;917840;-59
2023/08/16 04:55:07;;;;;;;17.77;13.77;;;;;;;;;;755654;183;921745;-57
2023/08/16 04:57:32;;;;;;;15.85;14.15;;;;;;;;;;753367;183;867364;-59
2023/08/16 04:59:58;;;;;;;15.17;13.43;;;;;;;;;;750361;184;929252;-57
2023/08/16 05:02:24;;;;;;;15.30;13.70;;;;;;;;;;754777;183;918668;-63
2023/08/16 05:04:50;;;;;;;24.10;12.90;;;;;;;;;;751503;183;921287;-59
2023/08/16 05:07:16;;;;;;;17.10;13.07;;;;;;;;;;750985;183;898036;-59
2023/08/16 05:09:42;;;;;;;13.20;11.80;;;;;;;;;;748266;183;938625;-59
2023/08/16 05:12:07;;;;;;;16.40;12.37;;;;;;;;;;760448;184;920007;-58
2023/08/16 05:14:33;;;;;;;13.60;12.27;;;;;;;;;;748376;183;921367;-63
2023/08/16 05:16:59;;;;;;;14.37;12.87;;;;;;;;;;751256;183;918179;-62
2023/08/16 05:19:25;;;;;;;15.53;12.80;;;;;;;;;;759970;183;917009;-57
2023/08/16 05:21:51;;;;;;;13.07;11.77;;;;;;;;;;751652;184;918989;-59
2023/08/16 05:24:17;;;;;;;17.10;12.23;;;;;;;;;;752260;183;919597;-59
2023/08/16 05:26:43;;;;;;;13.67;11.60;;;;;;;;;;753504;183;918624;-58
2023/08/16 05:29:08;;;;;;;14.17;12.90;;;;;;;;;;751292;184;919025;-58
2023/08/16 05:31:34;;;;;;;13.87;11.57;;;;;;;;;;754750;184;921693;-59
2023/08/16 05:34:00;;;;;;;12.57;11.37;;;;;;;;;;755604;184;912738;-63
2023/08/16 05:36:27;;;;;;;16.77;11.90;;;;;;;;;;750900;183;920403;-64
2023/08/16 05:38:53;;;;;;;13.67;12.17;;;;;;;;;;750160;183;920203;-58
2023/08/16 05:41:18;;;;;;;13.87;12.00;;;;;;;;;;753936;183;916863;-58
2023/08/16 05:43:44;;;;;;;18.47;11.47;;;;;;;;;;757061;183;868751;-58
2023/08/16 05:46:10;;;;;;;11.67;10.57;;;;;;;;;;748403;183;918494;-58
2023/08/16 05:48:36;;;;;;;13.10;11.57;;;;;;;;;;755320;183;916119;-59
2023/08/16 05:51:02;;;;;;;18.27;10.57;;;;;;;;;;751632;184;913961;-59
2023/08/16 05:53:28;;;;;;;14.27;10.63;;;;;;;;;;751801;183;919312;-62
2023/08/16 05:55:53;;;;;;;16.80;10.57;;;;;;;;;;750933;184;918822;-57
2023/08/16 05:58:19;;;;;;;12.13;10.50;;;;;;;;;;758220;183;819468;-63
2023/08/16 06:00:46;;;;;;;13.57;10.90;;;;;;;;;;753282;183;918858;-58
2023/08/16 06:03:11;;;;;;;12.48;11.27;;;;;;;;;;750485;184;918851;-62
2023/08/16 06:05:37;;;;;;;11.37;10.10;;;;;;;;;;743759;184;921592;-59
2023/08/16 06:08:04;;;;;;;18.07;10.17;;;;;;;;;;753253;184;920194;-64
2023/08/16 06:10:29;;;;;;;12.40;11.00;;;;;;;;;;752704;184;920290;-57
2023/08/16 06:12:55;;;;;;;15.87;11.37;;;;;;;;;;751783;183;921867;-62
2023/08/16 06:15:20;;;;;;;13.47;11.93;;;;;;;;;;756810;183;819724;-62
2023/08/16 06:17:46;;;;;;;14.80;13.13;;;;;;;;;;751333;183;919291;-58
2023/08/16 06:20:12;;;;;;;12.10;10.70;;;;;;;;;;745708;184;912551;-58
2023/08/16 06:22:38;;;;;;;13.37;11.47;;;;;;;;;;756259;184;914966;-57
2023/08/16 06:25:05;;;;;;;10.73;9.63;;;;;;;;;;748958;183;882647;-63
2023/08/16 06:27:30;;;;;;;10.33;9.23;;;;;;;;;;754266;184;860657;-58
2023/08/16 06:29:57;;;;;;;12.32;10.38;;;;;;;;;;749172;183;820149;-59
2023/08/16 06:32:22;;;;;;;13.57;10.80;;;;;;;;;;755437;184;819032;-62
2023/08/16 06:34:48;;;;;;;10.37;9.33;;;;;;;;;;750637;183;818020;-61
2023/08/16 06:37:14;;;;;;;12.50;9.50;;;;;;;;;;752723;183;817213;-63
2023/08/16 06:39:41;;;;;;;11.77;9.63;;;;;;;;;;758802;184;813453;-58
2023/08/16 06:42:06;;;;;;;11.20;9.50;;;;;;;;;;751990;180;920308;-59
2023/08/16 06:44:32;;;;;;;14.60;9.93;;;;;;;;;;755685;182;919273;-58
2023/08/16 06:46:58;;;;;;;15.85;9.10;;;;;;;;;;754079;182;812717;-58
2023/08/16 06:49:24;;;;;;;11.40;10.10;;;;;;;;;;749399;184;919227;-58
2023/08/16 06:51:50;;;;;;;10.97;9.50;;;;;;;;;;752472;184;923889;-59
2023/08/16 06:54:16;;;;;;;9.83;8.90;;;;;;;;;;759743;183;857496;-62
2023/08/16 06:56:41;;;;;;;12.30;8.70;;;;;;;;;;745468;184;924525;-63
2023/08/16 06:59:07;;;;;;;13.67;9.53;;;;;;;;;;747522;184;919443;-63
2023/08/16 07:01:33;;;;;;;11.80;9.60;;;;;;;;;;742766;183;920797;-58
2023/08/16 07:03:59;;;;;;;13.40;10.23;;;;;;;;;;757649;184;918941;-64
2023/08/16 07:06:26;;;;;;;10.30;9.30;;;;;;;;;;753870;183;917274;-63
2023/08/16 07:08:51;;;;;;;11.80;9.43;;;;;;;;;;748531;183;903014;-63
2023/08/16 07:11:16;;;;;;;11.20;9.67;;;;;;;;;;750326;183;926167;-59
2023/08/16 07:13:42;;;;;;;10.97;8.97;;;;;;;;;;754454;184;918924;-59
2023/08/16 07:16:08;;;;;;;11.40;9.50;;;;;;;;;;752274;183;919017;-59
2023/08/16 07:18:34;;;;;;;19.43;9.03;;;;;;;;;;753537;183;917460;-64
2023/08/16 07:21:00;;;;;;;10.13;9.17;;;;;;;;;;751118;183;920268;-64
2023/08/16 07:23:26;;;;;;;12.50;8.70;;;;;;;;;;750465;183;918298;-64
2023/08/16 07:25:53;;;;;;;11.63;9.37;;;;;;;;;;747347;184;902694;-64
2023/08/16 07:28:19;;;;;;;10.63;9.60;;;;;;;;;;758030;182;863764;-64
2023/08/16 07:30:45;;;;;;;13.33;9.60;;;;;;;;;;753933;183;940859;-64
2023/08/16 07:33:11;;;;;;;14.27;9.27;;;;;;;;;;747979;183;912863;-59
2023/08/16 07:35:37;;;;;;;10.20;9.20;;;;;;;;;;755782;183;890171;-65
2023/08/16 07:38:03;;;;;;;15.17;8.30;;;;;;;;;;744492;183;916494;-64
2023/08/16 07:40:29;;;;;;;12.03;8.70;;;;;;;;;;747479;184;908516;-59
2023/08/16 07:42:54;;;;;;;10.93;8.57;;;;;;;;;;754796;184;919111;-59
2023/08/16 07:45:21;;;;;;;19.90;9.20;;;;;;;;;;753755;183;925650;-59
2023/08/16 07:47:46;;;;;;;16.20;8.43;;;;;;;;;;753752;183;919946;-59
2023/08/16 07:50:12;;;;;;;9.67;8.60;;;;;;;;;;750869;182;919636;-60
2023/08/16 07:52:38;;;;;;;10.23;9.23;;;;;;;;;;758422;183;919560;-60
2023/08/16 07:55:04;;;;;;;9.60;8.30;;;;;;;;;;748331;182;921554;-65
2023/08/16 07:57:31;;;;;;;9.30;8.25;;;;;;;;;;751036;182;1021147;-60
2023/08/16 07:59:56;;;;;;;13.40;8.20;;;;;;;;;;754297;184;917465;-60
2023/08/16 08:02:22;;;;;;;10.13;9.10;;;;;;;;;;754011;184;922915;-60
2023/08/16 08:04:47;;;;;;;14.43;9.27;;;;;;;;;;752679;183;920519;-59
2023/08/16 08:07:13;;;;;;;9.23;8.33;;;;;;;;;;758277;184;1017399;-66
2023/08/16 08:09:39;;;;;;;10.27;8.97;;;;;;;;;;759777;183;918716;-66
2023/08/16 08:12:06;;;;;;;11.87;7.50;;;;;;;;;;756194;183;915198;-63
2023/08/16 08:14:31;;;;;;;12.07;8.50;;;;;;;;;;751177;183;918640;-66
2023/08/16 08:16:57;;;;;;;15.60;7.60;;;;;;;;;;754857;183;853397;-60
2023/08/16 08:19:22;;;;;;;14.20;8.03;;;;;;;;;;750453;184;919056;-61
2023/08/16 08:21:48;;;;;;;15.03;8.50;;;;;;;;;;747582;183;918857;-60
2023/08/16 08:24:15;;;;;;;13.30;8.60;;;;;;;;;;752393;183;911144;-68
2023/08/16 08:26:40;;;;;;;9.73;8.83;;;;;;;;;;751555;184;814955;-59
2023/08/16 08:29:06;;;;;;;13.20;7.60;;;;;;;;;;747823;184;916446;-61
2023/08/16 08:31:32;;;;;;;11.07;8.20;;;;;;;;;;756652;183;919063;-66
2023/08/16 08:33:58;;;;;;;9.13;8.10;;;;;;;;;;753785;183;918803;-60
2023/08/16 08:36:23;;;;;;;8.90;7.70;;;;;;;;;;750421;183;918718;-60
2023/08/16 08:38:49;;;;;;;9.20;8.10;;;;;;;;;;753262;183;919039;-66
2023/08/16 08:41:18;;;;;;;11.00;7.67;;;;;;;;;;744299;183;920238;-67
2023/08/16 08:43:41;;;;;;;13.40;7.63;;;;;;;;;;742945;183;919062;-59
2023/08/16 08:46:07;;;;;;;13.00;8.37;;;;;;;;;;753184;184;918976;-60
2023/08/16 08:48:33;;;;;;;12.13;9.17;;;;;;;;;;760899;182;878095;-67
2023/08/16 08:50:58;;;;;;;10.23;7.60;;;;;;;;;;747671;183;921990;-66
2023/08/16 08:53:24;;;;;;;12.13;8.07;;;;;;;;;;750443;183;918678;-66
2023/08/16 08:55:51;;;;;;;8.20;7.40;;;;;;;;;;750525;184;817219;-67
2023/08/16 08:58:17;;;;;;;12.80;8.23;;;;;;;;;;749885;184;920032;-67
2023/08/16 09:00:42;;;;;;;9.30;7.77;;;;;;;;;;745694;183;917520;-60
2023/08/16 09:03:08;;;;;;;9.60;7.70;;;;;;;;;;754522;183;917344;-66
2023/08/16 09:05:34;;;;;;;12.13;7.37;;;;;;;;;;749410;182;919242;-61
2023/08/16 09:08:00;;;;;;;7.90;7.10;;;;;;;;;;752570;182;847996;-61
2023/08/16 09:10:25;;;;;;;10.10;7.77;;;;;;;;;;758178;182;920108;-67
2023/08/16 09:12:51;;;;;;;10.00;7.50;;;;;;;;;;748537;184;817316;-68
2023/08/16 09:15:17;;;;;;;8.87;8.03;;;;;;;;;;755342;183;919968;-68
2023/08/16 09:17:43;;;;;;;12.03;7.33;;;;;;;;;;746727;183;921975;-61
2023/08/16 09:20:09;;;;;;;9.47;8.40;;;;;;;;;;757160;183;919565;-60
2023/08/16 09:22:35;;;;;;;9.40;8.00;;;;;;;;;;749208;183;918921;-67
2023/08/16 09:25:01;;;;;;;13.77;8.33;;;;;;;;;;750954;184;919509;-68
2023/08/16 09:27:28;;;;;;;8.80;7.30;;;;;;;;;;754011;184;919340;-61
2023/08/16 09:29:54;;;;;;;10.73;7.57;;;;;;;;;;749787;183;913115;-60
2023/08/16 09:32:19;;;;;;;9.80;7.20;;;;;;;;;;746398;183;921851;-67
2023/08/16 09:34:45;;;;;;;10.07;6.97;;;;;;;;;;755776;183;748629;-62
2023/08/16 09:37:12;;;;;;;11.67;8.10;;;;;;;;;;755674;183;918431;-66
2023/08/16 09:39:36;;;;;;;8.83;7.93;;;;;;;;;;753837;183;861545;-69
2023/08/16 09:42:02;;;;;;;14.13;8.53;;;;;;;;;;751138;183;910487;-59
2023/08/16 09:44:29;;;;;;;11.47;8.40;;;;;;;;;;752457;184;919015;-59
2023/08/16 09:46:54;;;;;;;13.50;8.47;;;;;;;;;;741374;186;636410;-58
2023/08/16 09:49:20;;;;;;;13.30;7.70;;;;;;;;;;757054;183;919228;-66
2023/08/16 09:51:46;;;;;;;14.03;7.53;;;;;;;;;;753516;184;818199;-66
2023/08/16 09:54:13;;;;;;;9.00;8.10;;;;;;;;;;751273;183;910129;-66
2023/08/16 09:56:39;;;;;;;15.33;8.47;;;;;;;;;;756841;183;866722;-60
2023/08/16 09:59:06;;;;;;;14.87;8.03;;;;;;;;;;757685;183;820179;-60
2023/08/16 10:01:31;;;;;;;16.03;7.77;;;;;;;;;;757370;183;817475;-59
2023/08/16 10:03:57;;;;;;;20.83;7.60;;;;;;;;;;754768;183;915106;-60
2023/08/16 10:06:24;;;;;;;12.40;8.03;;;;;;;;;;754312;184;619289;-60
2023/08/16 10:08:50;;;;;;;8.73;7.10;;;;;;;;;;753556;181;636448;-60
2023/08/16 10:11:16;;;;;;;8.43;7.73;;;;;;;;;;751161;183;643800;-67
2023/08/16 10:13:42;;;;;;;11.20;7.30;;;;;;;;;;752699;183;776548;-59
2023/08/16 10:16:11;;;;;;;10.17;7.20;;;;;;;;;;762054;183;910609;-66
2023/08/16 10:18:34;;;;;;;18.20;8.20;;;;;;;;;;755322;182;880340;-65
2023/08/16 10:20:59;;;;;;;11.90;7.70;;;;;;;;;;752145;182;816467;-59
2023/08/16 10:23:25;;;;;;;9.33;7.53;;;;;;;;;;759068;182;911029;-59
2023/08/16 10:25:51;;;;;;;10.40;6.80;;;;;;;;;;755774;182;919751;-60
2023/08/16 10:28:17;;;;;;;7.80;7.00;;;;;;;;;;758253;183;823708;-61
2023/08/16 10:30:43;;;;;;;9.40;8.23;;;;;;;;;;751377;185;822440;-65
2023/08/16 10:33:09;;;;;;;10.57;7.70;;;;;;;;;;759737;182;816564;-59
2023/08/16 10:35:34;;;;;;;11.93;8.30;;;;;;;;;;745253;183;918766;-66
2023/08/16 10:38:00;;;;;;;10.93;9.80;;;;;;;;;;751790;183;921800;-66
2023/08/16 10:40:26;;;;;;;12.97;8.10;;;;;;;;;;751865;183;919853;-59
2023/08/16 10:42:53;;;;;;;10.73;8.67;;;;;;;;;;751987;183;918761;-65
2023/08/16 10:45:21;;;;;;;9.00;8.15;;;;;;;;;;750080;184;922001;-65
2023/08/16 10:47:47;;;;;;;9.20;8.20;;;;;;;;;;754916;183;919199;-59
2023/08/16 10:50:13;;;;;;;14.00;8.23;;;;;;;;;;746806;184;919342;-65
2023/08/16 10:52:39;;;;;;;7.70;7.00;;;;;;;;;;755006;183;919235;-65
2023/08/16 10:55:05;;;;;;;11.13;7.40;;;;;;;;;;746193;185;919621;-60
2023/08/16 10:57:31;;;;;;;8.00;7.20;;;;;;;;;;754884;183;918829;-59
2023/08/16 11:00:05;;;;;;;14.93;8.10;;;;;;;;;;746033;183;919075;-67
2023/08/16 11:02:30;;;;;;;12.63;8.40;;;;;;;;;;744210;183;921021;-64
2023/08/16 11:04:56;;;;;;;11.23;7.20;;;;;;;;;;753757;183;910764;-65
2023/08/16 11:07:22;;;;;;;13.23;8.40;;;;;;;;;;750564;183;817114;-66
2023/08/16 11:09:48;;;;;;;13.13;9.30;;;;;;;;;;749218;183;896053;-66
2023/08/16 11:12:15;;;;;;;15.00;8.73;;;;;;;;;;747735;184;909007;-64
2023/08/16 11:14:40;;;;;;;9.60;8.67;;;;;;;;;;757443;183;818319;-58
2023/08/16 11:17:06;;;;;;;9.73;8.30;;;;;;;;;;745684;183;818343;-58
2023/08/16 11:19:33;;;;;;;10.87;8.13;;;;;;;;;;749630;184;918645;-64
2023/08/16 11:21:57;;;;;;;10.33;9.03;;;;;;;;;;754187;183;858600;-58
2023/08/16 11:24:23;;;;;;;10.80;8.17;;;;;;;;;;745568;183;919176;-64
2023/08/16 11:26:49;;;;;;;10.50;7.80;;;;;;;;;;750439;183;920694;-63
2023/08/16 11:29:15;;;;;;;10.23;7.10;;;;;;;;;;754779;184;916459;-64
2023/08/16 11:31:41;;;;;;;8.70;7.03;;;;;;;;;;756245;183;917649;-58
2023/08/16 11:34:07;;;;;;;8.67;7.10;;;;;;;;;;749210;182;943876;-59
2023/08/16 11:36:32;;;;;;;12.03;8.43;;;;;;;;;;754129;184;944593;-64
2023/08/16 11:38:58;;;;;;;8.73;7.83;;;;;;;;;;746833;184;917034;-59
2023/08/16 11:41:24;;;;;;;11.00;7.60;;;;;;;;;;754285;183;818850;-59
2023/08/16 11:44:00;;;;;;;9.13;7.85;;;;;;;;;;759479;183;618358;-64
2023/08/16 11:46:26;;;;;;;13.97;8.40;;;;;;;;;;761778;183;608939;-64
2023/08/16 11:48:51;;;;;;;10.03;7.73;;;;;;;;;;752075;183;915798;-65
2023/08/16 11:51:17;;;;;;;17.73;8.47;;;;;;;;;;755010;183;914258;-59
2023/08/16 11:53:44;;;;;;;10.67;7.90;;;;;;;;;;750565;184;816835;-59
2023/08/16 11:56:09;;;;;;;8.30;7.40;;;;;;;;;;755402;183;816966;-59
2023/08/16 11:58:42;;;;;;;10.73;8.80;;;;;;;;;;752954;183;932612;-65
2023/08/16 12:01:09;;;;;;;8.30;7.33;;;;;;;;;;750142;183;919216;-59
2023/08/16 12:03:33;;;;;;;10.03;7.70;;;;;;;;;;756970;183;825612;-59
2023/08/16 12:05:59;;;;;;;10.40;7.20;;;;;;;;;;753284;184;919029;-65
2023/08/16 12:08:24;;;;;;;9.53;8.30;;;;;;;;;;748954;183;916753;-65
2023/08/16 12:10:50;;;;;;;8.73;7.60;;;;;;;;;;755813;183;917550;-60
2023/08/16 12:13:16;;;;;;;9.37;7.23;;;;;;;;;;753941;185;917101;-59
2023/08/16 12:15:42;;;;;;;9.80;7.53;;;;;;;;;;749038;183;917596;-64
2023/08/16 12:18:08;;;;;;;14.70;7.60;;;;;;;;;;752233;183;919630;-66
2023/08/16 12:20:35;;;;;;;10.93;8.30;;;;;;;;;;753519;183;919889;-60
2023/08/16 12:22:59;;;;;;;11.87;7.70;;;;;;;;;;755099;183;918953;-60
2023/08/16 12:25:25;;;;;;;11.00;8.00;;;;;;;;;;750696;183;818171;-60
2023/08/16 12:27:51;;;;;;;9.10;8.07;;;;;;;;;;756934;183;820281;-67
2023/08/16 12:30:17;;;;;;;9.63;8.63;;;;;;;;;;752766;184;919471;-65
2023/08/16 12:32:43;;;;;;;8.27;7.57;;;;;;;;;;748927;184;919320;-60
2023/08/16 12:35:09;;;;;;;10.40;8.60;;;;;;;;;;747711;183;928623;-64
2023/08/16 12:37:34;;;;;;;8.57;7.60;;;;;;;;;;747545;184;921569;-65
2023/08/16 12:40:00;;;;;;;12.30;7.40;;;;;;;;;;750881;181;921199;-65
2023/08/16 12:42:26;;;;;;;10.20;7.70;;;;;;;;;;753276;182;918813;-59
2023/08/16 12:44:52;;;;;;;8.17;6.80;;;;;;;;;;757785;182;618121;-66
2023/08/16 12:47:18;;;;;;;10.83;9.10;;;;;;;;;;757224;182;632388;-64
2023/08/16 12:49:44;;;;;;;7.60;6.73;;;;;;;;;;753912;184;631627;-65
2023/08/16 12:52:09;;;;;;;11.00;6.93;;;;;;;;;;757359;183;616478;-59
2023/08/16 12:54:35;;;;;;;7.73;6.73;;;;;;;;;;758502;183;631431;-58
2023/08/16 12:57:01;;;;;;;11.90;7.03;;;;;;;;;;758375;183;816345;-59
2023/08/16 12:59:27;;;;;;;8.30;7.07;;;;;;;;;;753858;183;918752;-59
2023/08/16 13:01:53;;;;;;;8.10;7.30;;;;;;;;;;750525;183;918589;-58
2023/08/16 13:04:19;;;;;;;9.60;6.77;;;;;;;;;;747974;183;938215;-63
2023/08/16 13:06:45;;;;;;;10.00;6.70;;;;;;;;;;748195;183;861867;-63
2023/08/16 13:09:10;;;;;;;11.23;6.50;;;;;;;;;;763668;183;618051;-65
2023/08/16 13:11:36;;;;;;;8.97;7.80;;;;;;;;;;747869;183;918172;-64
2023/08/16 13:14:02;;;;;;;9.45;7.90;;;;;;;;;;749383;184;818723;-64
2023/08/16 13:16:28;;;;;;;12.20;8.67;;;;;;;;;;754329;185;918196;-64
2023/08/16 13:18:54;;;;;;;8.20;7.40;;;;;;;;;;753492;183;909809;-64
2023/08/16 13:21:20;;;;;;;9.60;8.17;;;;;;;;;;751675;183;916088;-63
2023/08/16 13:23:46;;;;;;;9.23;7.40;;;;;;;;;;755692;183;916072;-58
2023/08/16 13:26:12;;;;;;;8.37;7.67;;;;;;;;;;748007;183;915506;-58
2023/08/16 13:28:37;;;;;;;13.17;8.27;;;;;;;;;;746942;183;912730;-63
2023/08/16 13:31:03;;;;;;;8.30;7.60;;;;;;;;;;746784;183;1024923;-64
2023/08/16 13:33:29;;;;;;;8.33;7.60;;;;;;;;;;749288;183;918205;-58
2023/08/16 13:35:55;;;;;;;9.63;7.10;;;;;;;;;;744171;184;917439;-62
2023/08/16 13:38:21;;;;;;;8.50;7.60;;;;;;;;;;753684;183;918911;-58
2023/08/16 13:40:48;;;;;;;8.67;7.67;;;;;;;;;;753746;183;818494;-58
2023/08/16 13:43:13;;;;;;;9.00;7.53;;;;;;;;;;753510;183;921541;-57
2023/08/16 13:45:39;;;;;;;9.60;7.53;;;;;;;;;;749792;185;913253;-58
2023/08/16 13:48:05;;;;;;;9.17;7.50;;;;;;;;;;752541;183;921648;-64
2023/08/16 13:50:31;;;;;;;10.20;7.40;;;;;;;;;;749403;183;913356;-57
2023/08/16 13:52:56;;;;;;;9.90;7.47;;;;;;;;;;757550;182;920177;-58
2023/08/16 13:55:23;;;;;;;8.70;7.90;;;;;;;;;;751319;183;918134;-62
2023/08/16 13:57:48;;;;;;;9.00;8.20;;;;;;;;;;757046;183;916712;-58
2023/08/16 14:00:14;;;;;;;10.87;8.13;;;;;;;;;;749477;184;920077;-58
2023/08/16 14:02:40;;;;;;;10.45;8.25;;;;;;;;;;749703;184;921275;-63
2023/08/16 14:05:06;;;;;;;13.93;7.50;;;;;;;;;;750162;186;917344;-58